createdAt,value
2022-07-29T00:00:00.678Z,47.00
2022-07-29T00:02:28.195Z,47.08
2022-07-29T00:04:54.960Z,47.15
2022-07-29T00:07:21.647Z,47.19
2022-07-29T00:09:51.676Z,47.07
2022-07-29T00:12:26.420Z,46.93
2022-07-29T00:14:57.960Z,47.02
2022-07-29T00:17:25.506Z,47.04
2022-07-29T00:19:52.349Z,46.94
2022-07-29T00:22:19.213Z,47.37
2022-07-29T00:24:45.859Z,47.45
2022-07-29T00:27:12.661Z,47.49
2022-07-29T00:29:39.404Z,47.29
2022-07-29T00:32:06.403Z,47.28
2022-07-29T00:34:51.831Z,47.30
2022-07-29T00:37:18.491Z,47.70
2022-07-29T00:39:45.269Z,47.68
2022-07-29T00:42:12.056Z,47.36
2022-07-29T00:44:42.656Z,47.65
2022-07-29T00:47:10.849Z,47.56
2022-07-29T00:49:38.485Z,47.97
2022-07-29T00:52:06.215Z,47.36
2022-07-29T00:54:34.196Z,47.93
2022-07-29T00:57:01.568Z,47.36
2022-07-29T00:59:35.133Z,47.63
2022-07-29T01:02:03.596Z,47.92
2022-07-29T01:04:30.953Z,47.46
2022-07-29T01:06:57.799Z,47.99
2022-07-29T01:09:35.001Z,48.22
2022-07-29T01:12:11.859Z,48.20
2022-07-29T01:14:38.949Z,48.05
2022-07-29T01:17:17.103Z,47.78
2022-07-29T01:19:50.518Z,48.06
2022-07-29T01:22:30.282Z,48.07
2022-07-29T01:25:55.926Z,48.01
2022-07-29T01:28:46.199Z,48.29
2022-07-29T01:31:22.107Z,48.12
2022-07-29T01:33:58.305Z,48.24
2022-07-29T01:36:31.567Z,48.21
2022-07-29T01:39:13.670Z,48.61
2022-07-29T01:41:49.514Z,48.42
2022-07-29T01:44:21.511Z,48.40
2022-07-29T01:46:55.721Z,48.27
2022-07-29T01:49:29.782Z,48.50
2022-07-29T01:52:03.610Z,48.55
2022-07-29T01:54:35.823Z,48.43
2022-07-29T01:57:03.367Z,48.56
2022-07-29T01:59:30.779Z,48.12
2022-07-29T02:01:59.817Z,48.97
2022-07-29T02:04:29.711Z,48.39
2022-07-29T02:07:00.321Z,49.03
2022-07-29T02:09:27.902Z,48.55
2022-07-29T02:11:56.397Z,49.27
2022-07-29T02:14:24.423Z,48.49
2022-07-29T02:16:54.846Z,48.58
2022-07-29T02:19:23.484Z,49.06
2022-07-29T02:21:52.833Z,49.00
2022-07-29T02:24:20.027Z,48.71
2022-07-29T02:26:47.206Z,49.22
2022-07-29T02:29:15.233Z,49.41
2022-07-29T02:31:44.587Z,49.74
2022-07-29T02:34:12.010Z,49.50
2022-07-29T02:36:39.126Z,49.77
2022-07-29T02:39:06.131Z,49.99
2022-07-29T02:41:42.440Z,50.12
2022-07-29T02:44:15.779Z,50.56
2022-07-29T02:47:02.531Z,50.12
2022-07-29T02:49:36.636Z,50.96
2022-07-29T02:52:05.833Z,51.25
2022-07-29T02:54:36.179Z,51.59
2022-07-29T02:57:07.538Z,51.86
2022-07-29T02:59:35.688Z,52.25
2022-07-29T03:02:03.518Z,52.42
2022-07-29T03:04:32.239Z,53.10
2022-07-29T03:07:00.603Z,53.17
2022-07-29T03:09:28.180Z,53.60
2022-07-29T03:11:56.150Z,54.09
2022-07-29T03:14:24.060Z,54.38
2022-07-29T03:16:51.695Z,54.79
2022-07-29T03:19:19.535Z,54.99
2022-07-29T03:21:46.442Z,55.16
2022-07-29T03:24:26.519Z,55.54
2022-07-29T03:26:53.325Z,55.90
2022-07-29T03:29:20.000Z,55.74
2022-07-29T03:31:46.845Z,56.12
2022-07-29T03:34:15.383Z,56.51
2022-07-29T03:36:42.339Z,56.83
2022-07-29T03:39:10.478Z,57.20
2022-07-29T03:41:38.526Z,57.71
2022-07-29T03:44:07.160Z,58.24
2022-07-29T03:46:35.596Z,58.36
2022-07-29T03:49:04.589Z,58.42
2022-07-29T03:51:33.770Z,58.93
2022-07-29T03:54:09.289Z,58.89
2022-07-29T03:56:43.985Z,59.32
2022-07-29T03:59:11.818Z,59.19
2022-07-29T04:01:39.010Z,59.40
2022-07-29T04:04:06.202Z,59.19
2022-07-29T04:06:43.040Z,60.29
2022-07-29T04:09:10.108Z,60.82
2022-07-29T04:11:56.966Z,62.55
2022-07-29T04:14:27.695Z,64.03
2022-07-29T04:16:54.384Z,65.62
2022-07-29T04:19:21.067Z,67.03
2022-07-29T04:21:47.833Z,67.61
2022-07-29T04:24:14.880Z,68.50
2022-07-29T04:26:41.832Z,69.29
2022-07-29T04:29:08.557Z,69.50
2022-07-29T04:31:35.362Z,69.82
2022-07-29T04:34:02.064Z,70.19
2022-07-29T04:36:29.945Z,71.16
2022-07-29T04:38:57.104Z,70.63
2022-07-29T04:41:23.802Z,70.39
2022-07-29T04:44:02.027Z,70.63
2022-07-29T04:46:28.919Z,71.04
2022-07-29T04:48:55.738Z,71.71
2022-07-29T04:51:22.456Z,71.48
2022-07-29T04:53:49.131Z,71.66
2022-07-29T04:56:15.829Z,71.29
2022-07-29T04:58:42.493Z,70.96
2022-07-29T05:01:09.198Z,71.65
2022-07-29T05:03:35.895Z,71.79
2022-07-29T05:06:02.534Z,72.03
2022-07-29T05:08:29.241Z,71.86
2022-07-29T05:10:55.844Z,71.53
2022-07-29T05:13:22.522Z,71.70
2022-07-29T05:15:49.453Z,71.96
2022-07-29T05:18:16.555Z,72.42
2022-07-29T05:20:43.404Z,73.09
2022-07-29T05:23:10.239Z,72.97
2022-07-29T05:25:40.716Z,73.16
2022-07-29T05:28:10.762Z,72.86
2022-07-29T05:30:37.595Z,73.28
2022-07-29T05:33:04.463Z,73.28
2022-07-29T05:35:31.070Z,73.30
2022-07-29T05:37:57.712Z,73.44
2022-07-29T05:40:24.360Z,73.54
2022-07-29T05:42:50.990Z,73.70
2022-07-29T05:45:17.650Z,73.23
2022-07-29T05:47:44.390Z,73.36
2022-07-29T05:50:11.013Z,73.30
2022-07-29T05:52:37.684Z,73.63
2022-07-29T05:55:06.645Z,73.85
2022-07-29T05:57:33.637Z,73.92
2022-07-29T06:00:00.367Z,73.29
2022-07-29T06:02:27.353Z,73.12
2022-07-29T06:04:54.084Z,73.46
2022-07-29T06:07:20.977Z,73.31
2022-07-29T06:09:47.612Z,73.15
2022-07-29T06:12:14.285Z,72.42
2022-07-29T06:14:41.207Z,72.33
2022-07-29T06:17:08.050Z,71.74
2022-07-29T06:19:37.866Z,71.22
2022-07-29T06:22:05.162Z,70.48
2022-07-29T06:24:31.915Z,70.03
2022-07-29T06:26:58.580Z,70.00
2022-07-29T06:29:25.195Z,70.65
2022-07-29T06:31:51.810Z,70.53
2022-07-29T06:34:18.822Z,71.04
2022-07-29T06:36:45.989Z,71.22
2022-07-29T06:39:13.222Z,70.87
2022-07-29T06:41:39.969Z,70.77
2022-07-29T06:44:06.794Z,70.62
2022-07-29T06:46:33.850Z,70.91
2022-07-29T06:49:02.748Z,71.18
2022-07-29T06:51:29.666Z,71.20
2022-07-29T06:53:59.671Z,70.57
2022-07-29T06:56:38.537Z,70.61
2022-07-29T06:59:08.237Z,71.03
2022-07-29T07:01:35.278Z,71.21
2022-07-29T07:04:01.969Z,71.11
2022-07-29T07:06:28.752Z,71.48
2022-07-29T07:08:55.519Z,71.13
2022-07-29T07:11:22.189Z,71.26
2022-07-29T07:13:48.934Z,71.35
2022-07-29T07:16:16.091Z,71.07
2022-07-29T07:18:42.885Z,71.39
2022-07-29T07:21:09.695Z,71.73
2022-07-29T07:23:36.459Z,72.10
2022-07-29T07:26:04.119Z,72.06
2022-07-29T07:28:30.806Z,72.10
2022-07-29T07:30:57.562Z,72.37
2022-07-29T07:33:24.410Z,71.89
2022-07-29T07:35:51.171Z,72.10
2022-07-29T07:38:18.099Z,72.37
2022-07-29T07:40:44.813Z,71.57
2022-07-29T07:43:11.494Z,71.84
2022-07-29T07:45:38.647Z,71.23
2022-07-29T07:48:06.156Z,71.62
2022-07-29T07:50:32.963Z,72.12
2022-07-29T07:53:00.193Z,71.79
2022-07-29T07:55:27.038Z,71.89
2022-07-29T07:57:54.735Z,72.14
2022-07-29T08:00:23.750Z,72.70
2022-07-29T08:02:51.413Z,73.21
2022-07-29T08:05:19.206Z,73.31
2022-07-29T08:07:47.165Z,73.08
2022-07-29T08:10:16.015Z,73.90
2022-07-29T08:12:44.592Z,74.27
2022-07-29T08:15:11.448Z,74.18
2022-07-29T08:17:38.228Z,74.82
2022-07-29T08:20:05.432Z,75.51
2022-07-29T08:22:32.198Z,76.00
2022-07-29T08:24:58.890Z,76.43
2022-07-29T08:27:42.863Z,76.30
2022-07-29T08:30:11.486Z,76.48
2022-07-29T08:32:55.426Z,76.70
2022-07-29T08:35:24.526Z,76.66
2022-07-29T08:37:52.192Z,76.40
2022-07-29T08:40:19.691Z,77.01
2022-07-29T08:42:46.511Z,76.74
2022-07-29T08:45:13.440Z,76.70
2022-07-29T08:47:40.943Z,76.85
2022-07-29T08:50:09.008Z,76.50
2022-07-29T08:52:41.196Z,76.55
2022-07-29T08:55:09.647Z,76.17
2022-07-29T08:57:37.255Z,76.69
2022-07-29T09:00:11.440Z,75.64
2022-07-29T09:02:46.731Z,75.22
2022-07-29T09:05:16.972Z,75.34
2022-07-29T09:07:44.953Z,75.00
2022-07-29T09:10:11.875Z,74.84
2022-07-29T09:12:39.033Z,74.43
2022-07-29T09:15:06.160Z,73.98
2022-07-29T09:17:43.049Z,73.97
2022-07-29T09:20:14.659Z,74.36
2022-07-29T09:22:42.305Z,74.28
2022-07-29T09:25:09.989Z,74.24
2022-07-29T09:27:37.115Z,73.94
2022-07-29T09:30:11.580Z,73.54
2022-07-29T09:32:59.346Z,73.79
2022-07-29T09:35:27.569Z,73.96
2022-07-29T09:37:54.583Z,74.63
2022-07-29T09:40:23.711Z,75.11
2022-07-29T09:42:50.704Z,75.81
2022-07-29T09:45:34.745Z,76.77
2022-07-29T09:48:15.355Z,77.25
2022-07-29T09:50:43.408Z,77.20
2022-07-29T09:53:11.190Z,77.01
2022-07-29T09:55:51.722Z,76.88
2022-07-29T09:58:20.999Z,76.58
2022-07-29T10:00:48.864Z,76.76
2022-07-29T10:03:16.801Z,75.97
2022-07-29T10:05:44.308Z,76.04
2022-07-29T10:08:13.417Z,75.91
2022-07-29T10:10:43.280Z,76.37
2022-07-29T10:13:15.726Z,76.61
2022-07-29T10:15:46.167Z,76.28
2022-07-29T10:18:18.550Z,76.09
2022-07-29T10:20:45.512Z,75.95
2022-07-29T10:23:12.371Z,75.49
2022-07-29T10:25:39.096Z,75.74
2022-07-29T10:28:07.144Z,75.61
2022-07-29T10:30:34.026Z,74.95
2022-07-29T10:33:09.897Z,74.45
2022-07-29T10:36:17.547Z,73.06
2022-07-29T10:39:18.348Z,72.07
2022-07-29T10:42:33.629Z,71.95
2022-07-29T10:45:01.889Z,71.32
2022-07-29T10:47:28.585Z,70.79
2022-07-29T10:49:59.362Z,69.30
2022-07-29T10:52:46.828Z,68.95
2022-07-29T10:55:37.810Z,67.32
2022-07-29T10:58:19.445Z,66.24
2022-07-29T11:00:49.380Z,64.32
2022-07-29T11:03:52.239Z,62.73
2022-07-29T11:06:27.077Z,62.55
2022-07-29T11:09:25.744Z,61.87
2022-07-29T11:12:02.643Z,60.16
2022-07-29T11:15:00.265Z,58.98
2022-07-29T11:17:27.236Z,58.47
2022-07-29T11:20:42.948Z,59.35
2022-07-29T11:23:27.757Z,58.51
2022-07-29T11:26:23.211Z,58.69
2022-07-29T11:28:55.615Z,58.62
2022-07-29T11:31:45.282Z,59.19
2022-07-29T11:34:21.129Z,59.56
2022-07-29T11:37:12.493Z,58.91
2022-07-29T11:39:43.363Z,58.81
2022-07-29T11:42:28.297Z,58.48
2022-07-29T11:45:41.052Z,58.09
2022-07-29T11:47:58.667Z,58.05
2022-07-29T11:50:48.243Z,58.94
2022-07-29T11:53:15.479Z,59.15
2022-07-29T11:55:51.141Z,58.57
2022-07-29T11:58:25.015Z,58.84
2022-07-29T12:00:55.540Z,58.98
2022-07-29T12:03:34.217Z,58.88
2022-07-29T12:06:15.110Z,58.54
2022-07-29T12:08:46.088Z,59.11
2022-07-29T12:11:22.746Z,59.31
2022-07-29T12:13:51.741Z,59.07
2022-07-29T12:16:25.341Z,58.97
2022-07-29T12:19:04.046Z,59.24
2022-07-29T12:21:53.953Z,59.89
2022-07-29T12:24:26.897Z,60.10
2022-07-29T12:26:58.738Z,59.44
2022-07-29T12:29:33.963Z,59.81
2022-07-29T12:32:03.081Z,59.75
2022-07-29T12:34:30.565Z,59.79
2022-07-29T12:36:57.358Z,59.61
2022-07-29T12:39:27.486Z,59.89
2022-07-29T12:42:03.842Z,59.67
2022-07-29T12:44:48.049Z,60.10
2022-07-29T12:47:15.075Z,59.63
2022-07-29T12:49:42.292Z,60.21
2022-07-29T12:52:25.316Z,59.07
2022-07-29T12:54:52.689Z,59.35
2022-07-29T12:57:19.914Z,58.54
2022-07-29T13:00:00.481Z,58.27
2022-07-29T13:02:27.254Z,58.76
2022-07-29T13:04:59.425Z,58.66
2022-07-29T13:07:57.076Z,58.59
2022-07-29T13:10:24.164Z,58.97
2022-07-29T13:13:14.577Z,58.41
2022-07-29T13:15:43.384Z,58.87
2022-07-29T13:18:29.876Z,58.49
2022-07-29T13:20:57.073Z,58.68
2022-07-29T13:23:23.871Z,59.46
2022-07-29T13:25:50.542Z,59.13
2022-07-29T13:28:17.637Z,58.62
2022-07-29T13:30:44.935Z,58.84
2022-07-29T13:33:11.961Z,58.59
2022-07-29T13:35:39.905Z,57.42
2022-07-29T13:38:07.032Z,57.20
2022-07-29T13:40:36.411Z,57.08
2022-07-29T13:43:03.208Z,56.70
2022-07-29T13:45:30.877Z,56.49
2022-07-29T13:47:57.614Z,55.47
2022-07-29T13:50:24.420Z,54.87
2022-07-29T13:52:52.044Z,55.01
2022-07-29T13:55:18.817Z,55.07
2022-07-29T13:57:45.506Z,54.37
2022-07-29T14:00:13.313Z,54.26
2022-07-29T14:02:40.062Z,54.08
2022-07-29T14:05:08.634Z,53.83
2022-07-29T14:07:35.669Z,53.85
2022-07-29T14:10:02.474Z,53.30
2022-07-29T14:12:29.127Z,53.71
2022-07-29T14:14:55.932Z,53.56
2022-07-29T14:17:22.899Z,53.81
2022-07-29T14:19:49.738Z,53.73
2022-07-29T14:22:16.532Z,53.38
2022-07-29T14:24:43.229Z,53.03
2022-07-29T14:27:10.010Z,52.95
2022-07-29T14:29:38.477Z,52.36
2022-07-29T14:32:10.137Z,51.94
2022-07-29T14:34:38.058Z,51.76
2022-07-29T14:37:06.917Z,50.58
2022-07-29T14:39:36.096Z,50.63
2022-07-29T14:42:06.332Z,50.63
2022-07-29T14:44:33.078Z,49.34
2022-07-29T14:47:00.940Z,48.73
2022-07-29T14:49:34.605Z,48.49
2022-07-29T14:52:01.531Z,47.69
2022-07-29T14:54:28.398Z,47.67
2022-07-29T14:56:58.274Z,47.29
2022-07-29T14:59:25.821Z,47.54
2022-07-29T15:01:52.682Z,47.47
2022-07-29T15:04:19.479Z,47.06
2022-07-29T15:06:46.374Z,46.95
2022-07-29T15:09:13.253Z,46.83
2022-07-29T15:11:40.063Z,47.32
2022-07-29T15:14:07.248Z,47.48
2022-07-29T15:16:36.281Z,47.47
2022-07-29T15:19:03.086Z,47.00
2022-07-29T15:21:29.778Z,46.64
2022-07-29T15:23:56.555Z,46.42
2022-07-29T15:26:23.421Z,46.51
2022-07-29T15:28:50.248Z,46.35
2022-07-29T15:31:17.158Z,45.50
2022-07-29T15:33:43.865Z,44.88
2022-07-29T15:36:25.419Z,44.40
2022-07-29T15:38:59.730Z,43.69
2022-07-29T15:41:26.494Z,43.99
2022-07-29T15:43:53.312Z,43.58
2022-07-29T15:46:39.010Z,42.89
2022-07-29T15:49:07.442Z,42.69
2022-07-29T15:51:34.448Z,41.86
2022-07-29T15:54:04.799Z,41.51
2022-07-29T15:56:31.915Z,41.83
2022-07-29T15:58:58.794Z,41.49
2022-07-29T16:01:25.712Z,42.42
2022-07-29T16:03:52.652Z,42.33
2022-07-29T16:06:19.581Z,41.95
2022-07-29T16:08:46.469Z,42.86
2022-07-29T16:11:13.347Z,42.68
2022-07-29T16:13:40.148Z,41.66
2022-07-29T16:16:07.029Z,41.80
2022-07-29T16:18:34.853Z,42.52
2022-07-29T16:21:01.674Z,42.37
2022-07-29T16:23:28.531Z,42.92
2022-07-29T16:26:00.091Z,42.93
2022-07-29T16:28:28.719Z,43.59
2022-07-29T16:30:55.805Z,43.46
2022-07-29T16:33:23.663Z,42.71
2022-07-29T16:35:51.171Z,43.46
2022-07-29T16:38:18.031Z,44.04
2022-07-29T16:40:45.109Z,44.70
2022-07-29T16:43:16.274Z,44.96
2022-07-29T16:46:01.005Z,45.16
2022-07-29T16:48:27.826Z,45.17
2022-07-29T16:50:54.933Z,45.32
2022-07-29T16:53:21.875Z,45.30
2022-07-29T16:55:48.563Z,45.41
2022-07-29T16:58:53.497Z,45.10
2022-07-29T17:01:22.566Z,45.70
2022-07-29T17:04:16.149Z,44.66
2022-07-29T17:06:43.060Z,44.05
2022-07-29T17:09:11.627Z,44.30
2022-07-29T17:11:54.078Z,43.80
2022-07-29T17:14:25.546Z,44.29
2022-07-29T17:17:00.000Z,43.90
2022-07-29T17:19:32.734Z,44.24
2022-07-29T17:22:08.442Z,44.44
2022-07-29T17:24:37.251Z,44.28
2022-07-29T17:27:05.887Z,44.78
2022-07-29T17:29:32.654Z,44.77
2022-07-29T17:32:00.195Z,44.13
2022-07-29T17:34:27.069Z,44.29
2022-07-29T17:36:53.904Z,44.23
2022-07-29T17:39:20.635Z,44.25
2022-07-29T17:41:47.395Z,44.40
2022-07-29T17:44:14.195Z,44.71
2022-07-29T17:46:41.456Z,44.98
2022-07-29T17:49:08.262Z,44.45
2022-07-29T17:51:35.105Z,44.44
2022-07-29T17:54:01.764Z,44.42
2022-07-29T17:56:28.465Z,44.16
2022-07-29T17:58:55.306Z,44.02
2022-07-29T18:01:23.767Z,44.18
2022-07-29T18:03:50.563Z,44.00
2022-07-29T18:06:17.404Z,43.84
2022-07-29T18:08:47.577Z,44.13
2022-07-29T18:11:15.158Z,44.28
2022-07-29T18:13:42.352Z,44.42
2022-07-29T18:16:09.539Z,44.59
2022-07-29T18:18:36.367Z,45.20
2022-07-29T18:21:03.715Z,44.82
2022-07-29T18:23:30.643Z,45.37
2022-07-29T18:25:57.402Z,45.21
2022-07-29T18:28:24.062Z,45.80
2022-07-29T18:30:51.087Z,46.10
2022-07-29T18:33:21.629Z,46.24
2022-07-29T18:35:50.512Z,46.61
2022-07-29T18:38:17.454Z,46.27
2022-07-29T18:40:45.905Z,46.55
2022-07-29T18:43:13.239Z,46.64
2022-07-29T18:45:40.139Z,47.05
2022-07-29T18:48:12.896Z,46.97
2022-07-29T18:50:40.218Z,46.96
2022-07-29T18:53:08.317Z,46.79
2022-07-29T18:55:35.322Z,47.06
2022-07-29T18:58:02.128Z,46.37
2022-07-29T19:00:28.878Z,46.64
2022-07-29T19:02:56.287Z,46.47
2022-07-29T19:05:25.244Z,47.12
2022-07-29T19:07:52.146Z,47.46
2022-07-29T19:10:18.979Z,47.19
2022-07-29T19:12:45.852Z,47.32
2022-07-29T19:15:12.659Z,47.85
2022-07-29T19:17:46.911Z,47.25
2022-07-29T19:20:14.588Z,48.24
2022-07-29T19:22:41.487Z,47.81
2022-07-29T19:25:09.452Z,47.94
2022-07-29T19:27:36.115Z,48.63
2022-07-29T19:30:05.078Z,48.64
2022-07-29T19:32:31.762Z,49.06
2022-07-29T19:35:16.954Z,48.83
2022-07-29T19:37:43.842Z,49.22
2022-07-29T19:40:12.267Z,49.50
2022-07-29T19:42:41.165Z,49.96
2022-07-29T19:45:08.377Z,49.66
2022-07-29T19:47:35.157Z,50.19
2022-07-29T19:50:02.455Z,50.21
2022-07-29T19:52:29.186Z,50.80
2022-07-29T19:54:55.962Z,51.23
2022-07-29T19:57:22.896Z,51.43
2022-07-29T19:59:51.003Z,51.81
2022-07-29T20:02:17.853Z,51.90
2022-07-29T20:04:44.648Z,52.15
2022-07-29T20:07:11.653Z,52.57
2022-07-29T20:09:40.154Z,52.66
2022-07-29T20:12:12.891Z,52.87
2022-07-29T20:14:39.588Z,53.32
2022-07-29T20:17:06.809Z,53.84
2022-07-29T20:19:33.496Z,54.14
2022-07-29T20:22:00.667Z,54.27
2022-07-29T20:24:27.582Z,54.65
2022-07-29T20:26:54.452Z,54.89
2022-07-29T20:29:21.338Z,54.65
2022-07-29T20:31:53.492Z,54.89
2022-07-29T20:34:23.358Z,55.82
2022-07-29T20:36:50.083Z,56.14
2022-07-29T20:39:16.755Z,55.82
2022-07-29T20:41:43.481Z,56.22
2022-07-29T20:44:10.341Z,56.71
2022-07-29T20:46:37.210Z,56.67
2022-07-29T20:49:04.160Z,56.58
2022-07-29T20:51:31.195Z,56.69
2022-07-29T20:54:10.070Z,57.31
2022-07-29T20:56:36.856Z,57.50
2022-07-29T20:59:03.599Z,57.45
2022-07-29T21:01:30.678Z,57.74
2022-07-29T21:03:57.420Z,57.92
2022-07-29T21:06:24.081Z,57.56
2022-07-29T21:08:50.817Z,58.00
2022-07-29T21:11:17.816Z,57.66
2022-07-29T21:14:04.786Z,58.16
2022-07-29T21:16:33.496Z,58.29
2022-07-29T21:19:00.274Z,58.32
2022-07-29T21:21:27.044Z,58.88
2022-07-29T21:23:53.919Z,59.40
2022-07-29T21:26:20.610Z,59.15
2022-07-29T21:28:47.339Z,59.32
2022-07-29T21:31:17.371Z,59.46
2022-07-29T21:33:47.548Z,59.58
2022-07-29T21:36:46.404Z,60.12
2022-07-29T21:39:07.412Z,60.17
2022-07-29T21:41:35.537Z,60.04
2022-07-29T21:44:02.176Z,60.53
2022-07-29T21:46:28.940Z,60.13
2022-07-29T21:48:55.833Z,59.46
2022-07-29T21:51:22.635Z,59.36
2022-07-29T21:53:50.669Z,59.01
2022-07-29T21:56:20.091Z,58.90
2022-07-29T21:58:49.398Z,58.78
2022-07-29T22:01:16.168Z,59.32
2022-07-29T22:03:43.008Z,58.92
2022-07-29T22:06:11.363Z,59.31
2022-07-29T22:08:45.819Z,59.38
2022-07-29T22:11:13.085Z,59.20
2022-07-29T22:13:39.940Z,59.58
2022-07-29T22:16:06.990Z,60.15
2022-07-29T22:18:33.765Z,60.16
2022-07-29T22:21:00.458Z,59.76
2022-07-29T22:23:27.134Z,60.16
2022-07-29T22:25:53.930Z,60.10
2022-07-29T22:28:20.584Z,60.21
2022-07-29T22:30:47.357Z,59.67
2022-07-29T22:33:17.614Z,60.24
2022-07-29T22:35:44.882Z,60.28
2022-07-29T22:38:14.994Z,60.63
2022-07-29T22:40:41.722Z,60.97
2022-07-29T22:43:08.353Z,60.76
2022-07-29T22:45:35.051Z,60.69
2022-07-29T22:48:01.770Z,60.62
2022-07-29T22:50:30.025Z,61.27
2022-07-29T22:52:56.857Z,61.37
2022-07-29T22:55:23.537Z,61.29
2022-07-29T22:57:50.275Z,61.18
2022-07-29T23:00:17.017Z,61.70
2022-07-29T23:02:43.719Z,61.53
2022-07-29T23:05:15.918Z,61.73
2022-07-29T23:07:43.035Z,61.55
2022-07-29T23:10:10.271Z,61.96
2022-07-29T23:12:36.999Z,61.79
2022-07-29T23:15:05.416Z,62.28
2022-07-29T23:17:36.160Z,62.41
2022-07-29T23:20:07.809Z,62.02
2022-07-29T23:22:35.919Z,62.35
2022-07-29T23:25:02.713Z,62.54
2022-07-29T23:27:29.390Z,62.78
2022-07-29T23:29:56.191Z,62.71
2022-07-29T23:32:22.835Z,63.01
2022-07-29T23:34:49.524Z,63.06
2022-07-29T23:37:16.181Z,63.07
2022-07-29T23:39:42.866Z,63.21
2022-07-29T23:42:09.689Z,63.56
2022-07-29T23:44:36.351Z,63.67
2022-07-29T23:47:03.385Z,63.97
2022-07-29T23:49:30.493Z,64.67
2022-07-29T23:51:57.332Z,64.96
2022-07-29T23:54:24.016Z,65.39
2022-07-29T23:56:50.779Z,65.81
2022-07-29T23:59:17.538Z,66.22
